createdAt,value
2022-08-26T00:02:13.337Z,7.57
2022-08-26T00:05:17.152Z,6.57
2022-08-26T00:08:21.247Z,5.50
2022-08-26T00:11:26.639Z,6.70
2022-08-26T00:14:30.938Z,5.60
2022-08-26T00:17:33.701Z,5.70
2022-08-26T00:20:38.758Z,5.35
2022-08-26T00:23:44.962Z,5.60
2022-08-26T00:26:48.346Z,5.37
2022-08-26T00:29:50.035Z,5.62
2022-08-26T00:32:52.984Z,6.00
2022-08-26T00:35:55.570Z,4.93
2022-08-26T00:38:58.332Z,6.03
2022-08-26T00:42:00.664Z,5.53
2022-08-26T00:45:11.715Z,5.55
2022-08-26T00:48:18.348Z,5.47
2022-08-26T00:51:23.463Z,5.55
2022-08-26T00:54:32.923Z,5.18
2022-08-26T00:57:36.271Z,5.65
2022-08-26T01:00:38.583Z,5.80
2022-08-26T01:03:46.337Z,5.40
2022-08-26T01:06:50.298Z,6.10
2022-08-26T01:09:52.415Z,5.85
2022-08-26T01:13:01.984Z,5.78
2022-08-26T01:16:08.328Z,6.22
2022-08-26T01:19:19.615Z,5.20
2022-08-26T01:22:35.686Z,5.72
2022-08-26T01:25:43.084Z,5.80
2022-08-26T01:28:46.122Z,5.50
2022-08-26T01:31:57.885Z,5.45
2022-08-26T01:35:00.906Z,5.15
2022-08-26T01:38:03.394Z,5.72
2022-08-26T01:41:16.026Z,5.07
2022-08-26T01:44:24.109Z,5.12
2022-08-26T01:47:27.957Z,4.97
2022-08-26T01:50:35.382Z,6.45
2022-08-26T01:53:39.411Z,5.60
2022-08-26T01:56:44.271Z,5.93
2022-08-26T01:59:48.126Z,5.70
2022-08-26T02:03:14.789Z,5.60
2022-08-26T02:06:16.621Z,5.40
2022-08-26T02:09:19.846Z,6.53
2022-08-26T02:12:22.912Z,5.50
2022-08-26T02:15:24.642Z,5.65
2022-08-26T02:18:29.592Z,5.00
2022-08-26T02:21:33.051Z,5.57
2022-08-26T02:24:50.859Z,5.03
2022-08-26T02:27:53.248Z,5.07
2022-08-26T02:30:55.751Z,5.20
2022-08-26T02:34:08.629Z,5.37
2022-08-26T02:37:12.878Z,5.32
2022-08-26T02:40:17.156Z,5.05
2022-08-26T02:43:18.896Z,5.28
2022-08-26T02:46:33.548Z,4.60
2022-08-26T02:49:37.724Z,4.65
2022-08-26T02:52:40.399Z,4.70
2022-08-26T02:55:42.801Z,4.65
2022-08-26T02:58:45.254Z,4.45
2022-08-26T03:01:49.432Z,4.20
2022-08-26T03:04:57.424Z,4.18
2022-08-26T03:08:04.358Z,4.80
2022-08-26T03:11:06.131Z,4.85
2022-08-26T03:14:08.510Z,4.53
2022-08-26T03:17:10.513Z,4.90
2022-08-26T03:20:13.643Z,4.72
2022-08-26T03:23:17.191Z,4.50
2022-08-26T03:26:21.395Z,6.32
2022-08-26T03:29:42.731Z,4.07
2022-08-26T03:32:45.615Z,4.55
2022-08-26T03:35:50.551Z,4.55
2022-08-26T03:38:52.812Z,5.10
2022-08-26T03:41:55.466Z,5.22
2022-08-26T03:44:57.504Z,4.65
2022-08-26T03:48:00.019Z,4.60
2022-08-26T03:51:02.311Z,4.47
2022-08-26T03:54:05.997Z,4.95
2022-08-26T03:57:10.259Z,11.90
2022-08-26T04:00:18.252Z,9.57
2022-08-26T04:03:40.397Z,7.62
2022-08-26T04:06:44.527Z,6.22
2022-08-26T04:09:46.400Z,6.12
2022-08-26T04:12:48.463Z,5.70
2022-08-26T04:15:50.871Z,6.20
2022-08-26T04:18:52.510Z,6.30
2022-08-26T04:21:54.477Z,5.72
2022-08-26T04:24:56.272Z,5.82
2022-08-26T04:27:58.195Z,6.50
2022-08-26T04:31:00.265Z,5.68
2022-08-26T04:34:02.833Z,5.95
2022-08-26T04:37:05.958Z,6.35
2022-08-26T04:40:10.231Z,5.50
2022-08-26T04:43:12.986Z,4.85
2022-08-26T04:46:19.725Z,5.43
2022-08-26T04:49:21.621Z,5.50
2022-08-26T04:52:24.153Z,5.10
2022-08-26T04:55:38.727Z,6.03
2022-08-26T04:58:41.986Z,5.95
2022-08-26T05:01:50.293Z,6.00
2022-08-26T05:04:52.857Z,6.28
2022-08-26T05:07:54.537Z,6.28
2022-08-26T05:10:57.104Z,4.82
2022-08-26T05:14:02.136Z,5.10
2022-08-26T05:17:04.749Z,5.10
2022-08-26T05:20:07.361Z,4.45
2022-08-26T05:23:09.575Z,4.40
2022-08-26T05:26:11.763Z,4.43
2022-08-26T05:29:14.427Z,5.03
2022-08-26T05:32:16.335Z,4.20
2022-08-26T05:35:18.423Z,4.10
2022-08-26T05:38:21.858Z,4.80
2022-08-26T05:41:34.145Z,3.67
2022-08-26T05:44:55.534Z,3.78
2022-08-26T05:47:58.052Z,3.87
2022-08-26T05:51:05.008Z,3.55
2022-08-26T05:54:10.368Z,3.50
2022-08-26T05:57:13.901Z,3.83
2022-08-26T06:00:16.213Z,3.67
2022-08-26T06:03:18.909Z,4.00
2022-08-26T06:06:29.684Z,3.67
2022-08-26T06:09:31.692Z,3.50
2022-08-26T06:12:34.513Z,3.78
2022-08-26T06:15:39.899Z,3.37
2022-08-26T06:18:45.860Z,3.58
2022-08-26T06:21:51.276Z,3.87
2022-08-26T06:25:15.256Z,3.33
2022-08-26T06:28:17.808Z,3.37
2022-08-26T06:31:20.046Z,3.80
2022-08-26T06:34:22.024Z,3.30
2022-08-26T06:37:24.077Z,3.60
2022-08-26T06:40:25.845Z,3.15
2022-08-26T06:43:29.506Z,3.55
2022-08-26T06:46:31.745Z,3.22
2022-08-26T06:49:33.644Z,3.40
2022-08-26T06:52:35.372Z,3.70
2022-08-26T06:55:42.206Z,2.97
2022-08-26T07:01:46.661Z,3.40
2022-08-26T07:04:48.552Z,3.92
2022-08-26T07:07:52.965Z,3.90
2022-08-26T07:10:55.972Z,3.40
2022-08-26T07:13:59.008Z,3.58
2022-08-26T07:17:02.717Z,3.35
2022-08-26T07:20:08.413Z,3.47
2022-08-26T07:23:11.851Z,3.87
2022-08-26T07:26:18.258Z,3.55
2022-08-26T07:29:20.145Z,3.08
2022-08-26T07:32:26.233Z,3.70
2022-08-26T07:35:28.526Z,3.10
2022-08-26T07:38:30.237Z,3.47
2022-08-26T07:41:36.630Z,3.28
2022-08-26T07:44:39.699Z,3.28
2022-08-26T07:47:42.550Z,3.08
2022-08-26T07:50:48.932Z,3.08
2022-08-26T07:53:53.387Z,3.50
2022-08-26T07:56:55.870Z,3.12
2022-08-26T07:59:58.969Z,2.72
2022-08-26T08:03:01.573Z,3.17
2022-08-26T08:06:03.313Z,3.50
2022-08-26T08:09:05.662Z,2.97
2022-08-26T08:12:09.499Z,3.35
2022-08-26T08:15:20.139Z,2.92
2022-08-26T08:21:26.460Z,3.33
2022-08-26T08:24:28.985Z,3.35
2022-08-26T08:27:34.067Z,3.62
2022-08-26T08:30:39.716Z,2.87
2022-08-26T08:33:42.391Z,3.15
2022-08-26T08:36:46.463Z,3.00
2022-08-26T08:39:49.005Z,2.90
2022-08-26T08:43:06.423Z,3.47
2022-08-26T08:46:15.558Z,3.15
2022-08-26T08:49:18.940Z,3.15
2022-08-26T08:52:31.201Z,2.65
2022-08-26T08:55:55.611Z,2.85
2022-08-26T08:59:18.655Z,3.08
2022-08-26T09:02:31.810Z,2.92
2022-08-26T09:05:46.679Z,2.78
2022-08-26T09:08:51.564Z,3.40
2022-08-26T09:11:56.283Z,3.40
2022-08-26T09:15:18.563Z,3.13
2022-08-26T09:18:29.357Z,2.80
2022-08-26T09:21:32.191Z,2.87
2022-08-26T09:24:41.934Z,2.78
2022-08-26T09:27:53.323Z,2.95
2022-08-26T09:31:22.396Z,3.35
2022-08-26T09:34:28.052Z,2.70
2022-08-26T09:37:41.757Z,2.80
2022-08-26T09:40:59.426Z,2.92
2022-08-26T09:44:04.355Z,3.15
2022-08-26T09:47:07.595Z,3.10
2022-08-26T09:50:29.551Z,2.92
2022-08-26T09:53:37.682Z,2.40
2022-08-26T09:56:39.743Z,2.80
2022-08-26T09:59:41.715Z,2.83
2022-08-26T10:02:47.552Z,3.12
2022-08-26T10:06:00.221Z,2.85
2022-08-26T10:09:08.320Z,2.90
2022-08-26T10:12:19.390Z,3.08
2022-08-26T10:15:24.221Z,2.92
2022-08-26T10:18:33.881Z,3.12
2022-08-26T10:21:55.638Z,2.60
2022-08-26T10:25:02.664Z,2.70
2022-08-26T10:28:23.383Z,2.97
2022-08-26T10:31:40.551Z,2.78
2022-08-26T10:34:43.871Z,3.70
2022-08-26T10:37:49.969Z,3.33
2022-08-26T10:41:14.344Z,3.20
2022-08-26T10:44:20.846Z,2.70
2022-08-26T10:47:39.328Z,2.80
2022-08-26T10:50:44.956Z,3.33
2022-08-26T10:53:59.286Z,3.50
2022-08-26T10:57:25.460Z,3.00
2022-08-26T11:00:55.964Z,2.95
2022-08-26T11:04:23.559Z,3.20
2022-08-26T11:07:36.304Z,2.60
2022-08-26T11:10:59.334Z,3.10
2022-08-26T11:14:05.105Z,2.67
2022-08-26T11:17:11.433Z,2.62
2022-08-26T11:20:33.442Z,2.60
2022-08-26T11:23:50.592Z,3.55
2022-08-26T11:26:55.364Z,3.67
2022-08-26T11:30:05.529Z,3.33
2022-08-26T11:33:08.308Z,3.22
2022-08-26T11:36:12.264Z,2.78
2022-08-26T11:39:49.331Z,2.85
2022-08-26T11:43:18.759Z,2.90
2022-08-26T11:46:30.400Z,2.87
2022-08-26T11:49:33.329Z,3.00
2022-08-26T11:52:35.157Z,3.17
2022-08-26T11:55:43.431Z,2.95
2022-08-26T11:58:47.094Z,3.05
2022-08-26T12:01:51.542Z,3.15
2022-08-26T12:04:54.821Z,3.00
2022-08-26T12:08:07.270Z,2.72
2022-08-26T12:11:13.786Z,2.78
2022-08-26T12:14:21.998Z,2.80
2022-08-26T12:17:27.872Z,2.85
2022-08-26T12:20:48.939Z,3.10
2022-08-26T12:23:54.652Z,3.05
2022-08-26T12:27:32.100Z,3.05
2022-08-26T12:30:33.830Z,2.97
2022-08-26T12:33:36.729Z,2.92
2022-08-26T12:40:35.470Z,2.72
2022-08-26T12:43:39.490Z,3.20
2022-08-26T12:46:41.206Z,2.80
2022-08-26T12:49:44.118Z,2.83
2022-08-26T12:53:11.816Z,3.00
2022-08-26T12:56:29.528Z,3.03
2022-08-26T12:59:31.505Z,2.80
2022-08-26T13:02:40.095Z,2.75
2022-08-26T13:05:41.963Z,2.78
2022-08-26T13:08:49.690Z,2.97
2022-08-26T13:11:53.186Z,2.42
2022-08-26T13:14:56.161Z,2.87
2022-08-26T13:17:58.238Z,2.62
2022-08-26T13:21:00.299Z,2.45
2022-08-26T13:24:11.837Z,2.80
2022-08-26T13:27:15.030Z,2.97
2022-08-26T13:30:16.932Z,2.80
2022-08-26T13:33:18.839Z,2.53
2022-08-26T13:36:21.998Z,3.70
2022-08-26T13:39:25.139Z,2.40
2022-08-26T13:42:27.043Z,2.55
2022-08-26T13:45:28.766Z,2.53
2022-08-26T13:48:31.786Z,2.72
2022-08-26T13:51:34.265Z,2.92
2022-08-26T13:54:36.321Z,2.70
2022-08-26T13:57:38.575Z,3.03
2022-08-26T14:00:42.330Z,2.70
2022-08-26T14:03:44.485Z,2.53
2022-08-26T14:06:46.299Z,2.75
2022-08-26T14:09:50.278Z,2.87
2022-08-26T14:12:52.930Z,2.58
2022-08-26T14:15:55.019Z,2.62
2022-08-26T14:18:56.808Z,3.03
2022-08-26T14:22:00.917Z,3.10
2022-08-26T14:25:03.140Z,2.63
2022-08-26T14:28:05.027Z,2.78
2022-08-26T14:31:07.228Z,3.17
2022-08-26T14:34:09.802Z,3.00
2022-08-26T14:37:15.186Z,4.15
2022-08-26T14:40:19.071Z,3.40
2022-08-26T14:43:20.794Z,3.25
2022-08-26T14:46:22.689Z,2.90
2022-08-26T14:49:27.275Z,3.12
2022-08-26T14:52:29.777Z,2.87
2022-08-26T14:55:34.755Z,2.97
2022-08-26T14:58:36.617Z,3.47
2022-08-26T15:01:38.394Z,2.72
2022-08-26T15:04:41.410Z,3.30
2022-08-26T15:07:43.164Z,2.80
2022-08-26T15:10:45.072Z,3.10
2022-08-26T15:13:47.381Z,2.80
2022-08-26T15:16:51.489Z,3.10
2022-08-26T15:19:53.356Z,2.92
2022-08-26T15:22:55.047Z,3.08
2022-08-26T15:25:57.558Z,3.12
2022-08-26T15:29:04.252Z,3.25
2022-08-26T15:32:06.663Z,2.80
2022-08-26T15:35:09.388Z,2.70
2022-08-26T15:38:11.824Z,3.30
2022-08-26T15:41:14.406Z,3.37
2022-08-26T15:44:19.989Z,3.08
2022-08-26T15:47:22.276Z,4.45
2022-08-26T15:50:25.490Z,3.08
2022-08-26T15:53:30.531Z,2.80
2022-08-26T15:56:34.984Z,3.15
2022-08-26T15:59:36.973Z,3.10
2022-08-26T16:02:39.050Z,3.30
2022-08-26T16:05:45.615Z,3.45
2022-08-26T16:08:47.328Z,3.10
2022-08-26T16:11:49.368Z,3.08
2022-08-26T16:14:51.586Z,3.20
2022-08-26T16:17:54.831Z,3.62
2022-08-26T16:21:12.452Z,3.53
2022-08-26T16:24:16.074Z,3.58
2022-08-26T16:27:17.869Z,3.00
2022-08-26T16:30:21.520Z,3.47
2022-08-26T16:33:29.438Z,4.70
2022-08-26T16:36:32.069Z,5.45
2022-08-26T16:39:33.876Z,3.45
2022-08-26T16:42:42.229Z,3.20
2022-08-26T16:45:43.878Z,3.47
2022-08-26T16:48:45.861Z,3.00
2022-08-26T16:51:47.524Z,3.20
2022-08-26T16:54:49.483Z,2.53
2022-08-26T16:57:53.037Z,2.85
2022-08-26T17:00:54.827Z,2.90
2022-08-26T17:03:57.202Z,2.80
2022-08-26T17:06:59.960Z,3.40
2022-08-26T17:10:03.256Z,2.80
2022-08-26T17:13:05.070Z,3.10
2022-08-26T17:16:10.949Z,3.72
2022-08-26T17:19:12.720Z,3.10
2022-08-26T17:22:16.353Z,2.67
2022-08-26T17:25:28.178Z,2.85
2022-08-26T17:28:29.996Z,2.70
2022-08-26T17:31:32.573Z,3.08
2022-08-26T17:34:34.743Z,3.65
2022-08-26T17:37:36.984Z,2.80
2022-08-26T17:40:39.611Z,2.92
2022-08-26T17:43:41.600Z,3.70
2022-08-26T17:46:43.577Z,3.37
2022-08-26T17:49:45.706Z,3.70
2022-08-26T17:52:47.373Z,3.03
2022-08-26T17:55:49.928Z,3.55
2022-08-26T17:58:53.839Z,3.20
2022-08-26T18:01:58.686Z,3.05
2022-08-26T18:05:00.519Z,3.20
2022-08-26T18:08:02.634Z,2.75
2022-08-26T18:11:12.551Z,3.33
2022-08-26T18:14:14.554Z,3.47
2022-08-26T18:17:19.411Z,3.37
2022-08-26T18:20:21.491Z,3.37
2022-08-26T18:23:23.431Z,3.30
2022-08-26T18:26:31.840Z,3.03
2022-08-26T18:29:33.682Z,3.33
2022-08-26T18:32:36.027Z,2.87
2022-08-26T18:35:42.227Z,3.40
2022-08-26T18:38:45.393Z,3.45
2022-08-26T18:41:52.653Z,2.65
2022-08-26T18:44:54.511Z,3.50
2022-08-26T18:47:56.419Z,3.30
2022-08-26T18:51:00.679Z,4.55
2022-08-26T18:54:05.541Z,4.32
2022-08-26T18:57:07.446Z,4.30
2022-08-26T19:00:11.152Z,4.00
2022-08-26T19:03:16.393Z,4.03
2022-08-26T19:06:23.843Z,3.65
2022-08-26T19:09:28.913Z,3.97
2022-08-26T19:12:30.719Z,3.10
2022-08-26T19:15:41.552Z,3.22
2022-08-26T19:18:44.218Z,2.87
2022-08-26T19:21:47.492Z,3.42
2022-08-26T19:24:49.314Z,2.67
2022-08-26T19:27:51.145Z,2.53
2022-08-26T19:30:53.567Z,3.08
2022-08-26T19:33:58.339Z,2.97
2022-08-26T19:37:00.658Z,3.05
2022-08-26T19:40:03.617Z,3.03
2022-08-26T19:43:06.785Z,3.03
2022-08-26T19:46:11.145Z,3.08
2022-08-26T19:49:13.049Z,2.95
2022-08-26T19:52:15.323Z,2.67
2022-08-26T19:55:19.343Z,2.80
2022-08-26T19:58:21.644Z,2.75
2022-08-26T20:01:25.246Z,3.03
2022-08-26T20:04:46.582Z,3.30
2022-08-26T20:07:49.195Z,3.75
2022-08-26T20:10:52.943Z,3.30
2022-08-26T20:13:55.789Z,5.25
2022-08-26T20:16:58.214Z,4.15
2022-08-26T20:20:33.401Z,4.18
2022-08-26T20:23:36.894Z,3.87
2022-08-26T20:26:41.771Z,4.50
2022-08-26T20:29:44.057Z,3.92
2022-08-26T20:32:46.043Z,4.25
2022-08-26T20:35:47.750Z,4.15
2022-08-26T20:38:50.805Z,3.70
2022-08-26T20:41:52.869Z,4.03
2022-08-26T20:44:55.168Z,4.03
2022-08-26T20:47:56.878Z,4.75
2022-08-26T20:51:00.035Z,5.95
2022-08-26T20:54:03.729Z,4.95
2022-08-26T20:57:05.774Z,5.47
2022-08-26T21:00:08.238Z,5.45
2022-08-26T21:03:10.141Z,5.75
2022-08-26T21:06:12.637Z,5.72
2022-08-26T21:09:16.466Z,5.30
2022-08-26T21:12:18.516Z,4.47
2022-08-26T21:15:20.357Z,5.10
2022-08-26T21:18:22.413Z,5.40
2022-08-26T21:21:27.696Z,4.93
2022-08-26T21:24:29.489Z,5.75
2022-08-26T21:27:31.313Z,4.43
2022-08-26T21:30:37.106Z,3.67
2022-08-26T21:33:39.551Z,4.65
2022-08-26T21:36:41.858Z,3.78
2022-08-26T21:39:44.150Z,3.75
2022-08-26T21:42:46.463Z,4.03
2022-08-26T21:45:50.765Z,3.70
2022-08-26T21:49:04.525Z,3.75
2022-08-26T21:52:06.848Z,3.65
2022-08-26T21:55:11.552Z,3.60
2022-08-26T21:58:14.330Z,2.80
2022-08-26T22:01:20.827Z,3.10
2022-08-26T22:04:23.114Z,3.37
2022-08-26T22:07:24.759Z,3.03
2022-08-26T22:10:26.451Z,3.58
2022-08-26T22:13:31.841Z,3.03
2022-08-26T22:16:34.016Z,4.15
2022-08-26T22:19:45.957Z,2.85
2022-08-26T22:22:48.673Z,3.37
2022-08-26T22:25:51.000Z,3.58
2022-08-26T22:28:58.433Z,3.67
2022-08-26T22:32:01.999Z,3.80
2022-08-26T22:35:11.399Z,3.58
2022-08-26T22:38:26.294Z,3.10
2022-08-26T22:41:28.319Z,3.30
2022-08-26T22:44:31.486Z,3.78
2022-08-26T22:47:34.726Z,3.47
2022-08-26T22:50:38.958Z,3.70
2022-08-26T22:53:42.042Z,3.15
2022-08-26T22:56:45.076Z,3.42
2022-08-26T22:59:47.167Z,3.42
2022-08-26T23:02:48.994Z,3.35
2022-08-26T23:05:51.561Z,3.55
2022-08-26T23:08:55.297Z,3.97
2022-08-26T23:11:57.284Z,4.03
2022-08-26T23:14:59.767Z,4.10
2022-08-26T23:18:02.033Z,4.12
2022-08-26T23:21:04.154Z,3.60
2022-08-26T23:24:07.451Z,3.55
2022-08-26T23:27:09.667Z,3.50
2022-08-26T23:30:16.782Z,3.50
2022-08-26T23:33:18.878Z,3.50
2022-08-26T23:36:22.766Z,3.62
2022-08-26T23:39:25.615Z,3.30
2022-08-26T23:42:27.840Z,3.90
2022-08-26T23:45:32.623Z,3.35
2022-08-26T23:48:34.565Z,4.07
2022-08-26T23:51:56.588Z,4.03
2022-08-26T23:54:58.396Z,3.65
2022-08-26T23:58:00.341Z,4.05
